Aviation Digital Data Service (ADDS)

Output produced by METARs form (0209 UTC 16 July 2019)
found at http://www.aviationweather.gov/metar/data/
 
Forecast for: UKLL (LVIV , UA)
Text: TAF UKLL 152302Z 1600/1624 VRB01MPS 9999 SCT033
Forecast period: 0000 to 0500 UTC 16 July 2019
Forecast type: FROM: standard forecast or significant change
Winds: variable direction winds at 2 MPH (2 knots; 1.0 m/s)
Visibility: 6 or more miles 10+ km)
Ceiling: at least 12,000 feet AGL
Clouds: scattered clouds at 3300 feet AGL
Weather: no significant weather forecast for this period
Text: BECMG 1605/1607 BKN030
Forecast period: 0500 UTC 16 July 2019 to 0000 UTC 17 July 2019
Forecast type: BECOMING: Conditions expected to become as follows by 0700 UTC 16 July 2019
Winds: variable direction winds at 2 MPH (2 knots; 1.0 m/s)
Visibility: 6 or more miles 10+ km)
Ceiling: 3000 feet AGL
Clouds: broken clouds at 3000 feet AGL
Weather: no significant weather forecast for this period
Text: TEMPO 1607/1624 27005MPS 4000 -SHRA BKN015CB
Forecast period: 0700 UTC 16 July 2019 to 0000 UTC 17 July 2019
Forecast type: TEMPORARY: The following changes expected for less than half the time period
Winds: from the W (270 degrees) at 12 MPH (10 knots; 5.1 m/s)
Visibility: 2.49 miles (4.01 km)
Ceiling: 1500 feet AGL
Clouds: broken clouds at 1500 feet AGL
Weather: -SHRA  (light rain showers)